Time;durP1;ratioP1;P1;durP2;ratioP2;P2;SDS_P1;SDS_P2;PMS_P1;PMS_P2;Temp;Humidity;BMP_temperature;BMP_pressure;BME280_temperature;BME280_humidity;BME280_pressure;Samples;Min_cycle;Max_cycle;Signal;HPM_P1;HPM_P2
2023/08/16 00:00:42;;;;;;;25.75;15.15;;;18.60;99.90;;;;;;7593834;19;20014;-72
2023/08/16 00:03:15;;;;;;;11.65;8.95;;;18.60;99.90;;;;;;7598800;19;20526;-72
2023/08/16 00:05:48;;;;;;;15.07;10.43;;;18.60;99.90;;;;;;7595316;19;20014;-72
2023/08/16 00:08:20;;;;;;;22.00;11.38;;;18.60;99.90;;;;;;7596707;19;20078;-73
2023/08/16 00:10:52;;;;;;;17.92;11.38;;;18.50;99.90;;;;;;7597004;19;20082;-71
2023/08/16 00:13:25;;;;;;;13.50;9.85;;;18.50;99.90;;;;;;7597265;19;20138;-72
2023/08/16 00:15:57;;;;;;;18.83;11.17;;;18.50;99.90;;;;;;7596936;19;20022;-72
2023/08/16 00:18:30;;;;;;;19.75;9.43;;;18.50;99.90;;;;;;7597821;19;20014;-73
2023/08/16 00:21:02;;;;;;;15.93;9.82;;;18.50;99.90;;;;;;7595046;19;21812;-72
2023/08/16 00:23:34;;;;;;;13.15;9.52;;;18.50;99.90;;;;;;7594672;19;20026;-72
2023/08/16 00:26:07;;;;;;;12.00;8.80;;;18.50;99.90;;;;;;7597157;19;20545;-72
2023/08/16 00:28:39;;;;;;;15.32;9.60;;;18.50;99.90;;;;;;7595408;19;20105;-72
2023/08/16 00:31:11;;;;;;;13.82;9.10;;;18.50;99.90;;;;;;7592995;19;20014;-72
2023/08/16 00:33:44;;;;;;;12.32;9.18;;;18.50;99.90;;;;;;7596556;19;20029;-72
2023/08/16 00:36:16;;;;;;;16.40;9.45;;;18.40;99.90;;;;;;7596399;19;20756;-73
2023/08/16 00:38:48;;;;;;;18.98;11.38;;;18.40;99.90;;;;;;7595587;19;20026;-71
2023/08/16 00:41:20;;;;;;;17.90;11.45;;;18.30;99.90;;;;;;7594133;19;20023;-72
2023/08/16 00:43:53;;;;;;;13.30;8.70;;;18.20;99.90;;;;;;7591983;19;20022;-72
2023/08/16 00:46:27;;;;;;;16.33;9.02;;;18.20;99.90;;;;;;7597154;19;20014;-73
2023/08/16 00:49:00;;;;;;;10.25;8.15;;;18.20;99.90;;;;;;7595739;19;20375;-71
2023/08/16 00:51:32;;;;;;;9.48;7.80;;;18.30;99.90;;;;;;7586237;19;20105;-73
2023/08/16 00:54:05;;;;;;;10.93;8.15;;;18.30;99.90;;;;;;7595116;19;20110;-74
2023/08/16 00:56:38;;;;;;;11.60;7.82;;;18.20;99.90;;;;;;7592250;19;20034;-72
2023/08/16 00:59:13;;;;;;;12.93;8.95;;;18.20;99.90;;;;;;7593940;19;21113;-74
2023/08/16 01:01:45;;;;;;;14.07;8.38;;;18.20;99.90;;;;;;7595849;19;20648;-73
2023/08/16 01:04:18;;;;;;;20.45;12.20;;;18.10;99.90;;;;;;7591074;19;20022;-72
2023/08/16 01:06:53;;;;;;;16.97;9.97;;;17.90;99.90;;;;;;7597254;19;21311;-73
2023/08/16 01:09:26;;;;;;;25.08;13.05;;;17.80;99.90;;;;;;7593355;19;20045;-72
2023/08/16 01:12:22;;;;;;;10.98;8.70;;;17.80;99.90;;;;;;7597852;19;20200;-73
2023/08/16 01:15:00;;;;;;;14.25;8.43;;;17.80;99.90;;;;;;7593905;19;20019;-72
2023/08/16 01:17:33;;;;;;;10.25;8.50;;;17.80;99.90;;;;;;7594048;19;20022;-72
2023/08/16 01:20:08;;;;;;;18.63;13.13;;;17.80;99.90;;;;;;7593615;19;20094;-72
2023/08/16 01:23:06;;;;;;;21.65;13.00;;;17.70;99.90;;;;;;7588912;19;21585;-73
2023/08/16 01:25:53;;;;;;;15.35;9.90;;;17.70;99.90;;;;;;7594743;19;20748;-74
2023/08/16 01:28:26;;;;;;;10.38;8.30;;;17.70;99.90;;;;;;7588432;19;20015;-72
2023/08/16 01:31:03;;;;;;;12.32;8.43;;;17.70;99.90;;;;;;7599582;19;20055;-72
2023/08/16 01:33:35;;;;;;;32.90;8.95;;;17.70;99.90;;;;;;7594426;19;22411;-71
2023/08/16 01:36:07;;;;;;;11.30;9.05;;;17.70;99.90;;;;;;7593515;19;20045;-74
2023/08/16 01:38:40;;;;;;;15.13;10.70;;;17.60;99.90;;;;;;7592307;19;20023;-73
2023/08/16 01:41:35;;;;;;;19.33;10.23;;;17.50;99.90;;;;;;7593801;19;20594;-73
2023/08/16 01:44:09;;;;;;;10.57;8.82;;;17.50;99.90;;;;;;7591772;19;20026;-73
2023/08/16 01:46:42;;;;;;;18.67;8.73;;;17.50;99.90;;;;;;7589987;19;20912;-74
2023/08/16 01:49:15;;;;;;;;;;;17.50;99.90;;;;;;7590685;19;20026;-72
2023/08/16 01:51:47;;;;;;;31.70;16.02;;;17.40;99.90;;;;;;7595766;19;19933;-73
2023/08/16 01:54:20;;;;;;;16.30;9.02;;;17.40;99.90;;;;;;7586417;19;20093;-72
2023/08/16 01:56:52;;;;;;;14.82;8.63;;;17.40;99.90;;;;;;7596226;19;20019;-73
2023/08/16 01:59:25;;;;;;;12.80;8.18;;;17.60;99.90;;;;;;7587561;19;20022;-72
2023/08/16 02:01:59;;;;;;;13.50;8.95;;;17.50;99.90;;;;;;7593925;19;20022;-72
2023/08/16 02:04:31;;;;;;;12.32;8.60;;;17.50;99.90;;;;;;7587021;19;20022;-72
2023/08/16 02:07:03;;;;;;;11.70;8.68;;;17.50;99.90;;;;;;7597276;19;20743;-72
2023/08/16 02:09:35;;;;;;;12.57;8.98;;;17.40;99.90;;;;;;7588775;19;20026;-72
2023/08/16 02:12:08;;;;;;;16.73;9.73;;;17.50;99.90;;;;;;7594549;19;20014;-71
2023/08/16 02:14:40;;;;;;;11.93;9.45;;;17.50;99.90;;;;;;7588680;19;20895;-74
2023/08/16 02:17:13;;;;;;;15.65;9.80;;;17.50;99.90;;;;;;7590684;19;20026;-72
2023/08/16 02:19:46;;;;;;;12.15;9.80;;;17.40;99.90;;;;;;7589130;19;20800;-73
2023/08/16 02:22:18;;;;;;;;;;;17.40;99.90;;;;;;7596222;19;20055;-72
2023/08/16 02:24:51;;;;;;;15.13;10.02;;;17.40;99.90;;;;;;7592820;19;20764;-72
2023/08/16 02:27:24;;;;;;;16.10;9.43;;;17.40;99.90;;;;;;7587924;19;20487;-72
2023/08/16 02:29:57;;;;;;;13.13;9.32;;;17.30;99.90;;;;;;7594536;19;20048;-72
2023/08/16 02:32:30;;;;;;;12.00;8.80;;;17.30;99.90;;;;;;7591254;19;20030;-73
2023/08/16 02:35:03;;;;;;;10.07;8.70;;;17.30;99.90;;;;;;7589611;19;20681;-72
2023/08/16 02:37:35;;;;;;;11.05;7.90;;;17.40;99.90;;;;;;7592092;19;20090;-72
2023/08/16 02:40:08;;;;;;;14.55;8.70;;;17.40;99.90;;;;;;7592000;19;20040;-73
2023/08/16 02:42:41;;;;;;;10.93;8.25;;;17.40;99.90;;;;;;7587273;19;20041;-73
2023/08/16 02:45:13;;;;;;;11.30;8.25;;;17.40;99.90;;;;;;7591834;19;20026;-73
2023/08/16 02:47:46;;;;;;;18.02;10.25;;;17.30;99.90;;;;;;7588005;19;20022;-73
2023/08/16 02:50:18;;;;;;;17.77;8.67;;;17.30;99.90;;;;;;7596612;19;20014;-72
2023/08/16 02:52:50;;;;;;;15.32;8.35;;;17.30;99.90;;;;;;7588054;19;20019;-73
2023/08/16 02:55:22;;;;;;;13.60;9.23;;;17.30;99.90;;;;;;7587100;19;20051;-71
2023/08/16 02:57:54;;;;;;;11.63;8.52;;;17.30;99.90;;;;;;7588418;19;20021;-74
2023/08/16 03:00:29;;;;;;;9.68;8.20;;;17.20;99.90;;;;;;7591729;19;20011;-71
2023/08/16 03:03:02;;;;;;;11.25;8.10;;;17.20;99.90;;;;;;7593037;19;20014;-74
2023/08/16 03:05:34;;;;;;;10.30;7.80;;;17.10;99.90;;;;;;7589157;19;20019;-72
2023/08/16 03:08:06;;;;;;;13.95;8.75;;;17.10;99.90;;;;;;7599117;19;20047;-72
2023/08/16 03:10:38;;;;;;;14.50;10.10;;;17.00;99.90;;;;;;7593197;19;20014;-72
2023/08/16 03:13:11;;;;;;;10.20;8.00;;;17.00;99.90;;;;;;7603422;19;20973;-74
2023/08/16 03:15:43;;;;;;;16.75;9.07;;;17.00;99.90;;;;;;7586244;19;22099;-74
2023/08/16 03:18:15;;;;;;;12.60;7.95;;;17.00;99.90;;;;;;7598583;19;20021;-72
2023/08/16 03:20:47;;;;;;;13.30;8.25;;;17.00;99.90;;;;;;7592641;19;20026;-72
2023/08/16 03:23:20;;;;;;;13.70;9.18;;;16.90;99.90;;;;;;7602250;19;20981;-72
2023/08/16 03:25:52;;;;;;;10.15;8.63;;;16.90;99.90;;;;;;7589576;19;20024;-72
2023/08/16 03:28:25;;;;;;;13.25;7.97;;;16.80;99.90;;;;;;7597166;19;20026;-72
2023/08/16 03:30:57;;;;;;;10.40;7.93;;;16.90;99.90;;;;;;7598476;19;20026;-73
2023/08/16 03:33:29;;;;;;;11.07;8.85;;;16.80;99.90;;;;;;7598938;19;20019;-72
2023/08/16 03:36:01;;;;;;;10.88;8.13;;;16.80;99.90;;;;;;7598108;19;20010;-72
2023/08/16 03:38:36;;;;;;;15.35;8.00;;;16.80;99.90;;;;;;7595328;19;20090;-75
2023/08/16 03:41:09;;;;;;;12.13;7.65;;;16.80;99.90;;;;;;7600644;19;20025;-72
2023/08/16 03:43:41;;;;;;;12.02;8.90;;;16.70;99.90;;;;;;7594714;19;20018;-74
2023/08/16 03:46:13;;;;;;;15.70;8.20;;;16.60;99.90;;;;;;7596401;19;20018;-73
2023/08/16 03:48:46;;;;;;;12.55;7.90;;;16.60;99.90;;;;;;7597124;19;21782;-72
2023/08/16 03:51:18;;;;;;;10.10;7.78;;;16.60;99.90;;;;;;7601366;19;20070;-75
2023/08/16 03:53:50;;;;;;;12.68;7.40;;;16.60;99.90;;;;;;7594671;19;20019;-74
2023/08/16 03:56:23;;;;;;;15.13;7.50;;;16.50;99.90;;;;;;7599305;19;20019;-71
2023/08/16 03:58:55;;;;;;;12.13;7.40;;;16.60;99.90;;;;;;7596042;19;20018;-72
2023/08/16 04:01:27;;;;;;;10.70;8.93;;;16.60;99.90;;;;;;7594637;19;20677;-72
2023/08/16 04:04:00;;;;;;;9.18;8.02;;;16.50;99.90;;;;;;7598011;19;21228;-72
2023/08/16 04:06:38;;;;;;;10.50;7.43;;;16.50;99.90;;;;;;7593815;19;20030;-71
2023/08/16 04:09:14;;;;;;;11.43;9.10;;;16.50;99.90;;;;;;7598219;19;20014;-72
2023/08/16 04:11:46;;;;;;;11.93;8.98;;;16.50;99.90;;;;;;7598831;19;20634;-74
2023/08/16 04:14:19;;;;;;;12.18;9.55;;;16.60;99.90;;;;;;7597193;19;20022;-72
2023/08/16 04:16:51;;;;;;;13.05;8.43;;;16.50;99.90;;;;;;7595621;19;20410;-71
2023/08/16 04:19:23;;;;;;;11.77;7.97;;;16.50;99.90;;;;;;7598208;19;20483;-72
2023/08/16 04:21:56;;;;;;;12.70;8.60;;;16.60;99.90;;;;;;7593424;19;20022;-72
2023/08/16 04:24:28;;;;;;;13.60;10.15;;;16.70;99.90;;;;;;7597637;19;20050;-73
2023/08/16 04:27:00;;;;;;;12.15;8.77;;;16.60;99.90;;;;;;7592875;19;20010;-71
2023/08/16 04:29:35;;;;;;;10.90;8.30;;;16.60;99.90;;;;;;7591821;19;20716;-73
2023/08/16 04:32:07;;;;;;;11.40;8.15;;;16.70;99.90;;;;;;7594421;19;20018;-73
2023/08/16 04:34:40;;;;;;;11.38;8.35;;;16.70;99.90;;;;;;7595364;19;20093;-72
2023/08/16 04:37:12;;;;;;;10.48;8.02;;;16.80;99.90;;;;;;7594099;19;20038;-73
2023/08/16 04:39:44;;;;;;;9.02;7.85;;;16.60;99.90;;;;;;7594234;19;20088;-72
2023/08/16 04:42:16;;;;;;;15.75;9.88;;;16.60;99.90;;;;;;7592591;19;20011;-72
2023/08/16 04:44:49;;;;;;;12.00;9.27;;;16.50;99.90;;;;;;7591201;19;20475;-72
2023/08/16 04:47:22;;;;;;;16.25;7.60;;;16.50;99.90;;;;;;7594320;19;20098;-72
2023/08/16 04:49:56;;;;;;;14.55;8.77;;;16.50;99.90;;;;;;7595879;19;20022;-72
2023/08/16 04:52:28;;;;;;;10.70;8.93;;;16.50;99.90;;;;;;7599986;19;20032;-73
2023/08/16 04:55:00;;;;;;;20.48;8.07;;;16.60;99.90;;;;;;7587674;19;20086;-72
2023/08/16 04:57:33;;;;;;;9.32;7.97;;;16.60;99.90;;;;;;7594765;19;20843;-72
2023/08/16 05:00:07;;;;;;;10.57;8.68;;;16.60;99.90;;;;;;7592924;19;20498;-73
2023/08/16 05:02:46;;;;;;;10.73;8.40;;;16.60;99.90;;;;;;7595995;19;20019;-72
2023/08/16 05:05:18;;;;;;;11.45;9.20;;;16.60;99.90;;;;;;7599749;19;20025;-72
2023/08/16 05:07:51;;;;;;;12.88;8.95;;;16.60;99.90;;;;;;7594652;19;20022;-71
2023/08/16 05:10:23;;;;;;;12.50;9.15;;;16.60;99.90;;;;;;7594766;19;20090;-73
2023/08/16 05:12:55;;;;;;;12.63;8.25;;;16.60;99.90;;;;;;7595013;19;20816;-76
2023/08/16 05:15:28;;;;;;;14.80;10.57;;;16.60;99.90;;;;;;7590339;19;20010;-73
2023/08/16 05:18:00;;;;;;;11.65;8.80;;;16.60;99.90;;;;;;7595738;19;20019;-72
2023/08/16 05:20:35;;;;;;;15.77;7.38;;;16.70;99.90;;;;;;7597447;19;21634;-73
2023/08/16 05:23:07;;;;;;;8.02;7.22;;;16.80;99.90;;;;;;7595289;19;20113;-72
2023/08/16 05:25:39;;;;;;;9.70;7.65;;;16.90;99.90;;;;;;7590688;19;20052;-71
2023/08/16 05:28:12;;;;;;;12.55;8.23;;;17.00;99.90;;;;;;7594140;19;20011;-71
2023/08/16 05:30:44;;;;;;;9.27;8.00;;;17.00;99.90;;;;;;7594193;19;20735;-72
2023/08/16 05:33:16;;;;;;;17.52;7.78;;;17.00;99.90;;;;;;7596710;19;20014;-72
2023/08/16 05:35:49;;;;;;;12.52;8.23;;;17.00;99.90;;;;;;7596682;19;21412;-71
2023/08/16 05:38:22;;;;;;;9.20;7.63;;;17.10;99.90;;;;;;7596091;19;20057;-71
2023/08/16 05:40:54;;;;;;;11.80;7.93;;;17.10;99.90;;;;;;7594829;19;20128;-73
2023/08/16 05:43:27;;;;;;;12.13;8.65;;;17.20;99.90;;;;;;7595039;19;22255;-72
2023/08/16 05:45:59;;;;;;;12.73;8.45;;;17.30;99.90;;;;;;7591161;19;20015;-72
2023/08/16 05:48:32;;;;;;;11.38;7.82;;;17.30;99.90;;;;;;7593884;19;20010;-72
2023/08/16 05:51:04;;;;;;;11.18;8.23;;;17.40;99.90;;;;;;7592656;19;20018;-72
2023/08/16 05:53:36;;;;;;;14.25;8.20;;;17.40;99.90;;;;;;7591250;19;20034;-72
2023/08/16 05:56:08;;;;;;;11.18;8.20;;;17.50;99.90;;;;;;7596613;19;20026;-72
2023/08/16 05:58:41;;;;;;;10.07;7.60;;;17.60;99.90;;;;;;7592544;19;20025;-73
2023/08/16 06:01:13;;;;;;;13.73;7.05;;;17.60;99.90;;;;;;7593758;19;20094;-74
2023/08/16 06:03:45;;;;;;;11.77;8.82;;;17.70;99.90;;;;;;7595432;19;20058;-72
2023/08/16 06:06:18;;;;;;;10.05;7.43;;;17.80;99.90;;;;;;7594043;19;20034;-72
2023/08/16 06:08:50;;;;;;;8.27;7.38;;;17.90;99.90;;;;;;7594321;19;20019;-72
2023/08/16 06:11:22;;;;;;;10.40;7.25;;;18.00;99.90;;;;;;7597906;19;20029;-72
2023/08/16 06:13:55;;;;;;;11.48;7.82;;;18.10;99.90;;;;;;7594401;19;21556;-73
2023/08/16 06:16:27;;;;;;;9.57;7.70;;;18.20;99.90;;;;;;7593481;19;20022;-74
2023/08/16 06:19:00;;;;;;;6.55;5.65;;;18.20;99.90;;;;;;7594414;19;20043;-74
2023/08/16 06:21:32;;;;;;;6.85;5.32;;;18.30;99.90;;;;;;7591788;19;20025;-72
2023/08/16 06:24:05;;;;;;;10.60;7.13;;;18.30;99.90;;;;;;7591748;19;20023;-72
2023/08/16 06:26:37;;;;;;;10.77;7.60;;;18.40;99.90;;;;;;7587039;19;20026;-72
2023/08/16 06:29:09;;;;;;;14.18;6.53;;;18.50;99.90;;;;;;7594443;19;20019;-72
2023/08/16 06:31:42;;;;;;;10.95;5.60;;;18.60;99.90;;;;;;7590719;19;20125;-72
2023/08/16 06:34:14;;;;;;;9.32;5.85;;;18.80;99.90;;;;;;7594905;19;20026;-72
2023/08/16 06:36:49;;;;;;;6.95;5.55;;;18.80;99.90;;;;;;7589597;19;20044;-73
2023/08/16 06:39:21;;;;;;;8.50;5.70;;;18.90;99.90;;;;;;7593374;19;20010;-72
2023/08/16 06:41:53;;;;;;;9.65;6.30;;;19.00;99.90;;;;;;7594106;19;20010;-73
2023/08/16 06:44:26;;;;;;;9.32;5.40;;;19.00;99.90;;;;;;7592125;19;20018;-72
2023/08/16 06:46:58;;;;;;;7.00;5.35;;;19.20;99.90;;;;;;7590003;19;20048;-72
2023/08/16 06:49:30;;;;;;;7.38;4.70;;;19.30;99.90;;;;;;7593727;19;20385;-71
2023/08/16 06:52:03;;;;;;;8.80;5.10;;;19.40;99.90;;;;;;7594044;19;20014;-73
2023/08/16 06:54:35;;;;;;;6.20;4.60;;;19.50;99.90;;;;;;7592035;19;20033;-73
2023/08/16 06:57:11;;;;;;;6.57;5.57;;;19.60;99.90;;;;;;7596039;19;20020;-72
2023/08/16 06:59:44;;;;;;;5.05;4.55;;;19.70;99.90;;;;;;7586475;19;21432;-72
2023/08/16 07:02:17;;;;;;;13.68;5.47;;;19.80;99.90;;;;;;7596680;19;20019;-73
2023/08/16 07:04:50;;;;;;;13.07;5.85;;;20.00;99.90;;;;;;7589092;19;20022;-73
2023/08/16 07:07:22;;;;;;;7.38;5.55;;;20.10;99.90;;;;;;7590490;19;20026;-71
2023/08/16 07:09:54;;;;;;;6.93;4.65;;;20.20;99.90;;;;;;7593650;19;20022;-73
2023/08/16 07:12:27;;;;;;;6.82;5.05;;;20.40;99.90;;;;;;7594414;19;20021;-72
2023/08/16 07:14:59;;;;;;;9.63;5.22;;;20.50;99.90;;;;;;7592865;19;20026;-72
2023/08/16 07:17:31;;;;;;;5.57;5.05;;;20.60;99.90;;;;;;7593332;19;20029;-73
2023/08/16 07:20:07;;;;;;;6.90;5.30;;;20.80;99.90;;;;;;7589853;19;20022;-72
2023/08/16 07:22:39;;;;;;;14.32;4.47;;;21.00;99.90;;;;;;7588163;19;20022;-71
2023/08/16 07:25:12;;;;;;;7.65;5.43;;;21.20;99.90;;;;;;7589548;19;20681;-72
2023/08/16 07:27:44;;;;;;;8.38;4.65;;;21.30;99.90;;;;;;7583114;19;20072;-71
2023/08/16 07:30:16;;;;;;;4.75;4.30;;;21.50;99.90;;;;;;7589852;19;20065;-72
2023/08/16 07:32:48;;;;;;;5.25;4.10;;;21.60;99.90;;;;;;7589875;19;20026;-72
2023/08/16 07:35:21;;;;;;;6.68;4.13;;;21.80;99.90;;;;;;7589756;19;20495;-72
2023/08/16 07:37:54;;;;;;;4.32;3.92;;;21.90;99.90;;;;;;7583774;19;20108;-73
2023/08/16 07:40:26;;;;;;;4.88;4.35;;;22.10;99.90;;;;;;7594019;19;20064;-72
2023/08/16 07:42:58;;;;;;;5.95;4.22;;;22.10;99.90;;;;;;7590422;19;20018;-72
2023/08/16 07:45:31;;;;;;;6.43;4.18;;;22.30;99.90;;;;;;7587314;19;20628;-73
2023/08/16 07:48:03;;;;;;;8.88;4.45;;;22.30;99.90;;;;;;7591687;19;20026;-72
2023/08/16 07:50:36;;;;;;;6.17;3.70;;;22.30;99.90;;;;;;7592403;19;20022;-73
2023/08/16 07:53:08;;;;;;;8.35;4.28;;;22.50;99.90;;;;;;7579035;19;20149;-72
2023/08/16 07:55:41;;;;;;;4.30;3.90;;;22.60;99.90;;;;;;7593192;19;20053;-73
2023/08/16 07:58:15;;;;;;;4.68;3.70;;;22.50;99.90;;;;;;7597468;19;20022;-72
2023/08/16 08:00:54;;;;;;;6.22;3.90;;;22.60;99.90;;;;;;7586409;19;20114;-73
2023/08/16 08:03:26;;;;;;;4.88;4.15;;;22.70;99.90;;;;;;7601255;19;20840;-72
2023/08/16 08:06:02;;;;;;;5.57;4.20;;;22.90;99.90;;;;;;7593026;19;20018;-74
2023/08/16 08:08:35;;;;;;;4.03;3.60;;;22.90;99.90;;;;;;7598188;19;20022;-73
2023/08/16 08:11:08;;;;;;;;;;;23.10;99.90;;;;;;7599210;19;20022;-74
2023/08/16 08:13:40;;;;;;;4.90;3.40;;;23.30;99.90;;;;;;7598535;19;19926;-74
2023/08/16 08:16:13;;;;;;;6.28;3.83;;;23.30;99.90;;;;;;7599065;19;20030;-74
2023/08/16 08:18:45;;;;;;;4.43;3.63;;;23.30;99.90;;;;;;7592686;19;20014;-72
2023/08/16 08:21:18;;;;;;;6.10;3.70;;;23.50;99.90;;;;;;7582465;19;20019;-73
2023/08/16 08:23:50;;;;;;;4.57;3.83;;;23.50;99.90;;;;;;7586807;19;20025;-75
2023/08/16 08:26:26;;;;;;;6.22;3.70;;;23.60;99.90;;;;;;7600714;19;20014;-74
2023/08/16 08:28:58;;;;;;;4.50;3.85;;;23.60;99.90;;;;;;7598421;19;20680;-74
2023/08/16 08:31:30;;;;;;;7.05;3.90;;;23.50;99.90;;;;;;7602181;19;20079;-74
2023/08/16 08:34:03;;;;;;;4.88;3.80;;;23.60;99.90;;;;;;7594722;19;20029;-74
2023/08/16 08:36:35;;;;;;;3.97;3.60;;;23.60;99.90;;;;;;7596716;19;20043;-75
2023/08/16 08:39:07;;;;;;;4.38;3.38;;;23.80;99.90;;;;;;7599496;19;20011;-76
2023/08/16 08:41:40;;;;;;;4.25;3.33;;;24.00;99.90;;;;;;7598024;19;20014;-74
2023/08/16 08:44:22;;;;;;;6.88;3.33;;;24.00;99.90;;;;;;7597124;19;20360;-74
2023/08/16 08:46:54;;;;;;;6.00;3.53;;;24.00;99.90;;;;;;7596684;19;20562;-73
2023/08/16 08:49:39;;;;;;;6.03;3.22;;;24.10;99.90;;;;;;7603393;19;20015;-75
2023/08/16 08:52:13;;;;;;;3.15;2.88;;;24.10;99.90;;;;;;7595294;19;20018;-75
2023/08/16 08:54:46;;;;;;;3.92;3.20;;;24.20;99.90;;;;;;7596837;19;20026;-74
2023/08/16 08:57:19;;;;;;;2.78;2.50;;;24.20;99.90;;;;;;7600762;19;20025;-75
2023/08/16 08:59:53;;;;;;;3.45;3.10;;;24.30;99.90;;;;;;7602951;19;20014;-75
2023/08/16 09:02:29;;;;;;;4.35;3.42;;;24.40;99.90;;;;;;7603677;19;20060;-74
2023/08/16 09:05:05;;;;;;;4.15;3.35;;;24.40;99.90;;;;;;7593419;19;20018;-74
2023/08/16 09:07:41;;;;;;;7.80;3.08;;;24.40;99.90;;;;;;7601378;19;20107;-74
2023/08/16 09:10:15;;;;;;;2.80;2.53;;;24.40;99.90;;;;;;7598289;19;21409;-74
2023/08/16 09:12:47;;;;;;;3.53;2.53;;;24.50;99.90;;;;;;7605809;19;20022;-75
2023/08/16 09:15:19;;;;;;;3.97;3.03;;;24.50;99.90;;;;;;7593715;19;20046;-76
2023/08/16 09:17:53;;;;;;;5.07;3.17;;;24.60;99.90;;;;;;7607296;19;21063;-74
2023/08/16 09:20:25;;;;;;;5.40;3.40;;;24.70;99.90;;;;;;7610420;19;20082;-75
2023/08/16 09:22:58;;;;;;;4.82;3.10;;;24.70;99.90;;;;;;7597906;19;20059;-74
2023/08/16 09:25:31;;;;;;;5.17;3.10;;;24.80;99.90;;;;;;7599255;19;20031;-74
2023/08/16 09:28:03;;;;;;;6.53;3.58;;;24.80;99.90;;;;;;7594046;19;20087;-75
2023/08/16 09:30:36;;;;;;;4.57;2.85;;;24.80;99.90;;;;;;7603613;19;20085;-74
2023/08/16 09:33:13;;;;;;;6.05;3.30;;;24.80;99.90;;;;;;7597324;19;20077;-73
2023/08/16 09:35:51;;;;;;;5.22;3.40;;;24.90;99.90;;;;;;7604255;19;20010;-74
2023/08/16 09:38:23;;;;;;;7.35;3.20;;;25.00;99.90;;;;;;7601893;19;20312;-74
2023/08/16 09:41:00;;;;;;;8.07;3.38;;;25.00;99.90;;;;;;7600225;19;20018;-74
2023/08/16 09:43:33;;;;;;;3.95;3.13;;;25.00;99.90;;;;;;7600596;19;20030;-74
2023/08/16 09:46:05;;;;;;;3.55;3.22;;;25.10;99.90;;;;;;7595427;19;20053;-73
2023/08/16 09:48:39;;;;;;;10.43;3.05;;;25.20;99.90;;;;;;7607182;19;20025;-73
2023/08/16 09:51:33;;;;;;;8.00;3.17;;;25.30;99.90;;;;;;7604859;19;20021;-72
2023/08/16 09:54:13;;;;;;;3.10;2.80;;;25.20;99.90;;;;;;7601770;19;20018;-74
2023/08/16 09:56:47;;;;;;;3.85;2.70;;;25.20;99.90;;;;;;7607679;19;20454;-74
2023/08/16 09:59:23;;;;;;;3.80;3.33;;;25.30;99.90;;;;;;7602785;19;20018;-73
2023/08/16 10:01:59;;;;;;;3.90;2.58;;;25.30;99.90;;;;;;7605148;19;20601;-74
2023/08/16 10:04:35;;;;;;;3.22;2.85;;;25.40;99.90;;;;;;7592122;19;20007;-72
2023/08/16 10:07:11;;;;;;;3.92;2.95;;;25.40;99.90;;;;;;7593939;19;20062;-73
2023/08/16 10:09:44;;;;;;;3.53;3.00;;;25.50;99.90;;;;;;7603695;19;20022;-74
2023/08/16 10:12:17;;;;;;;3.00;2.70;;;25.50;99.90;;;;;;7599443;19;20030;-73
2023/08/16 10:14:49;;;;;;;2.80;2.60;;;25.50;99.90;;;;;;7597994;19;20026;-74
2023/08/16 10:17:24;;;;;;;3.17;2.88;;;25.60;99.90;;;;;;7598109;19;20655;-74
2023/08/16 10:20:00;;;;;;;4.53;3.00;;;25.60;99.90;;;;;;7600821;19;20673;-74
2023/08/16 10:22:40;;;;;;;4.40;2.58;;;25.60;99.90;;;;;;7598501;19;20914;-73
2023/08/16 10:25:23;;;;;;;2.85;2.50;;;25.60;99.90;;;;;;7595459;19;20356;-72
2023/08/16 10:28:00;;;;;;;4.10;2.80;;;25.70;99.90;;;;;;7601066;19;20594;-73
2023/08/16 10:30:34;;;;;;;5.97;3.10;;;25.80;99.90;;;;;;7598637;19;20022;-73
2023/08/16 10:33:15;;;;;;;3.10;2.67;;;25.80;99.90;;;;;;7601650;19;20056;-73
2023/08/16 10:35:50;;;;;;;3.50;2.80;;;25.90;99.90;;;;;;7596872;19;20015;-73
2023/08/16 10:38:33;;;;;;;3.05;2.75;;;26.00;99.90;;;;;;7598753;19;21198;-74
2023/08/16 10:41:14;;;;;;;4.95;2.97;;;26.10;99.90;;;;;;7599316;19;20018;-75
2023/08/16 10:43:51;;;;;;;4.47;2.80;;;26.20;99.90;;;;;;7594600;19;20022;-74
2023/08/16 10:46:32;;;;;;;3.25;2.92;;;26.30;99.90;;;;;;7598388;19;20117;-73
2023/08/16 10:49:11;;;;;;;3.83;2.78;;;26.30;99.90;;;;;;7598256;19;21127;-74
2023/08/16 10:51:50;;;;;;;4.68;2.85;;;26.30;99.90;;;;;;7594273;19;20040;-73
2023/08/16 10:54:32;;;;;;;2.95;2.70;;;26.30;99.90;;;;;;7598716;19;20025;-73
2023/08/16 10:57:06;;;;;;;3.05;2.75;;;26.30;99.90;;;;;;7599361;19;20014;-73
2023/08/16 10:59:40;;;;;;;2.70;2.50;;;26.40;99.90;;;;;;7598795;19;20022;-72
2023/08/16 11:02:18;;;;;;;3.60;2.60;;;26.50;99.90;;;;;;7602168;19;20019;-74
2023/08/16 11:04:51;;;;;;;3.33;2.42;;;26.50;99.80;;;;;;7598973;19;20043;-72
2023/08/16 11:07:24;;;;;;;3.65;2.42;;;26.70;99.90;;;;;;7598517;19;20015;-73
2023/08/16 11:10:00;;;;;;;4.95;2.75;;;26.80;99.90;;;;;;7603426;19;20030;-73
2023/08/16 11:12:34;;;;;;;3.03;2.58;;;27.20;99.90;;;;;;7601700;19;20015;-73
2023/08/16 11:15:08;;;;;;;5.65;2.80;;;27.40;99.20;;;;;;7588337;19;20022;-73
2023/08/16 11:17:42;;;;;;;2.83;2.63;;;27.90;99.40;;;;;;7604269;19;20019;-74
2023/08/16 11:20:20;;;;;;;2.78;2.58;;;28.30;99.00;;;;;;7602256;19;20019;-73
2023/08/16 11:22:53;;;;;;;2.83;2.60;;;28.60;98.80;;;;;;7600976;19;20021;-73
2023/08/16 11:25:33;;;;;;;3.93;2.77;;;29.10;98.00;;;;;;7603245;19;20014;-73
2023/08/16 11:28:05;;;;;;;3.08;2.78;;;29.30;96.70;;;;;;7611538;19;20130;-73
2023/08/16 11:30:38;;;;;;;3.13;2.83;;;29.60;95.80;;;;;;7612465;19;20026;-73
2023/08/16 11:33:16;;;;;;;2.43;2.23;;;29.90;95.10;;;;;;7611095;19;20459;-73
2023/08/16 11:35:48;;;;;;;5.30;2.80;;;30.10;93.30;;;;;;7608432;19;20612;-73
2023/08/16 11:38:23;;;;;;;5.27;2.80;;;30.10;93.10;;;;;;7611002;19;20070;-73
2023/08/16 11:40:56;;;;;;;2.88;2.60;;;30.40;92.30;;;;;;7612896;19;20270;-73
2023/08/16 11:43:29;;;;;;;;;;;30.20;92.00;;;;;;7613085;19;20019;-73
2023/08/16 11:46:04;;;;;;;3.40;2.77;;;30.50;92.60;;;;;;7612353;19;19951;-71
2023/08/16 11:48:36;;;;;;;3.78;2.70;;;30.60;90.90;;;;;;7616686;19;20279;-74
2023/08/16 11:51:11;;;;;;;4.78;2.85;;;30.60;92.30;;;;;;7616209;19;20026;-74
2023/08/16 11:53:44;;;;;;;3.83;2.58;;;30.90;91.30;;;;;;7615940;19;20026;-74
2023/08/16 11:56:16;;;;;;;3.33;3.03;;;31.00;90.70;;;;;;7615118;19;20023;-73
2023/08/16 11:58:49;;;;;;;6.35;3.50;;;31.10;90.10;;;;;;7613598;19;20023;-73
2023/08/16 12:01:23;;;;;;;3.78;2.92;;;31.30;86.90;;;;;;7616261;19;20018;-74
2023/08/16 12:03:59;;;;;;;5.03;2.60;;;31.30;90.80;;;;;;7615396;19;20064;-73
2023/08/16 12:06:32;;;;;;;3.75;3.20;;;31.40;89.60;;;;;;7615274;19;20021;-74
2023/08/16 12:09:05;;;;;;;3.17;2.80;;;31.70;89.20;;;;;;7616563;19;20915;-72
2023/08/16 12:11:38;;;;;;;4.25;3.10;;;31.80;87.50;;;;;;7620224;19;20018;-73
2023/08/16 12:14:10;;;;;;;5.30;3.20;;;31.70;85.90;;;;;;7616490;19;20017;-72
2023/08/16 12:16:43;;;;;;;3.22;2.92;;;31.70;86.40;;;;;;7622264;19;20027;-72
2023/08/16 12:19:22;;;;;;;4.15;3.17;;;31.80;86.50;;;;;;7618494;19;20014;-74
2023/08/16 12:21:54;;;;;;;4.88;3.13;;;31.80;86.90;;;;;;7625296;19;20014;-74
2023/08/16 12:24:27;;;;;;;3.75;2.92;;;31.90;85.50;;;;;;7621697;19;20018;-74
2023/08/16 12:26:59;;;;;;;6.22;3.53;;;31.90;84.30;;;;;;7626851;19;20590;-74
2023/08/16 12:29:32;;;;;;;3.47;3.10;;;32.10;83.00;;;;;;7621692;19;20018;-74
2023/08/16 12:32:05;;;;;;;5.80;3.25;;;32.20;82.50;;;;;;7623583;19;20334;-74
2023/08/16 12:34:37;;;;;;;6.07;3.22;;;32.20;81.10;;;;;;7621471;19;20026;-74
2023/08/16 12:37:29;;;;;;;4.18;3.03;;;32.20;82.00;;;;;;7626407;19;20070;-74
2023/08/16 12:40:04;;;;;;;6.35;2.78;;;32.20;82.90;;;;;;7626677;19;20026;-73
2023/08/16 12:42:37;;;;;;;;;;;32.40;80.80;;;;;;7628366;19;20015;-73
2023/08/16 12:45:09;;;;;;;4.03;3.37;;;32.40;79.80;;;;;;7627394;19;21317;-73
2023/08/16 12:47:42;;;;;;;;;;;32.10;80.10;;;;;;7625452;19;20037;-73
2023/08/16 12:50:14;;;;;;;3.22;2.92;;;31.90;79.80;;;;;;7632652;19;19910;-73
2023/08/16 12:52:46;;;;;;;4.10;2.83;;;32.00;80.40;;;;;;7634698;19;20035;-73
2023/08/16 12:55:18;;;;;;;3.87;2.97;;;32.20;81.30;;;;;;7633132;19;20022;-74
2023/08/16 12:57:51;;;;;;;7.13;3.00;;;32.40;79.00;;;;;;7628543;19;20300;-73
2023/08/16 13:00:34;;;;;;;4.15;3.25;;;32.40;79.80;;;;;;7632060;19;20054;-73
2023/08/16 13:03:17;;;;;;;3.13;2.83;;;32.40;77.30;;;;;;7633008;19;20018;-72
2023/08/16 13:06:04;;;;;;;5.35;3.25;;;32.60;76.10;;;;;;7631499;19;20031;-73
2023/08/16 13:08:40;;;;;;;3.60;2.92;;;32.90;77.30;;;;;;7629637;19;20013;-74
2023/08/16 13:11:15;;;;;;;5.03;2.90;;;33.10;74.00;;;;;;7630268;19;20630;-73
2023/08/16 13:14:09;;;;;;;5.40;3.50;;;33.20;74.60;;;;;;7639504;19;20014;-73
2023/08/16 13:16:43;;;;;;;3.70;3.40;;;33.10;74.50;;;;;;7634831;19;20735;-73